Time;durP1;ratioP1;P1;durP2;ratioP2;P2;SDS_P1;SDS_P2;PMS_P1;PMS_P2;Temp;Humidity;BMP_temperature;BMP_pressure;BME280_temperature;BME280_humidity;BME280_pressure;Samples;Min_cycle;Max_cycle;Signal;HPM_P1;HPM_P2
2022/06/14 00:01:14;;;;;;;3.10;1.77;;;11.70;90.50;;;;;;5024620;28;20068;-77
2022/06/14 00:03:42;;;;;;;2.33;1.73;;;11.70;90.80;;;;;;5013475;28;20026;-78
2022/06/14 00:06:18;;;;;;;2.30;1.92;;;11.60;90.90;;;;;;5020594;28;20033;-77
2022/06/14 00:08:44;;;;;;;;;;;11.50;91.00;;;;;;5010954;28;20117;-77
2022/06/14 00:11:11;;;;;;;;;;;11.50;91.40;;;;;;5004777;28;19949;-78
2022/06/14 00:13:37;;;;;;;5.22;2.28;;;11.40;91.40;;;;;;5019063;28;20327;-77
2022/06/14 00:16:03;;;;;;;2.03;1.83;;;11.40;91.60;;;;;;5016662;28;20032;-77
2022/06/14 00:18:29;;;;;;;6.15;1.88;;;11.30;91.80;;;;;;5018756;28;20034;-77
2022/06/14 00:20:55;;;;;;;3.00;1.83;;;11.30;92.20;;;;;;5011322;28;20091;-77
2022/06/14 00:23:22;;;;;;;2.67;1.92;;;11.30;92.30;;;;;;5013972;28;20100;-77
2022/06/14 00:25:53;;;;;;;3.55;1.75;;;11.30;92.30;;;;;;5003378;28;20034;-77
2022/06/14 00:28:19;;;;;;;3.03;1.90;;;11.20;92.30;;;;;;4997638;28;20038;-77
2022/06/14 00:30:49;;;;;;;2.85;1.70;;;11.10;92.50;;;;;;5006151;28;20025;-77
2022/06/14 00:33:15;;;;;;;3.35;1.92;;;11.10;92.70;;;;;;5012286;28;20041;-77
2022/06/14 00:35:41;;;;;;;4.38;2.03;;;11.00;93.00;;;;;;5005484;28;20560;-77
2022/06/14 00:38:07;;;;;;;3.42;1.70;;;11.00;93.30;;;;;;5012013;28;20061;-77
2022/06/14 00:40:35;;;;;;;2.60;1.80;;;10.90;93.30;;;;;;5007468;28;20053;-79
2022/06/14 00:43:03;;;;;;;3.28;1.85;;;10.90;93.50;;;;;;4995161;28;20073;-78
2022/06/14 00:45:29;;;;;;;2.70;1.73;;;11.00;93.60;;;;;;4999575;28;20038;-77
2022/06/14 00:48:07;;;;;;;4.68;2.10;;;11.00;94.00;;;;;;5033369;28;20105;-77
2022/06/14 00:51:01;;;;;;;2.92;1.55;;;11.00;94.30;;;;;;5031731;28;20082;-77
2022/06/14 00:53:34;;;;;;;1.67;1.58;;;11.00;94.40;;;;;;5009128;28;20061;-77
2022/06/14 00:56:14;;;;;;;2.45;1.80;;;11.00;94.10;;;;;;5020220;28;20490;-77
2022/06/14 00:58:56;;;;;;;3.75;1.70;;;10.90;94.20;;;;;;5028707;28;20046;-77
2022/06/14 01:01:27;;;;;;;3.38;1.63;;;10.90;94.20;;;;;;5011426;28;20084;-78
2022/06/14 01:04:17;;;;;;;2.13;1.65;;;10.80;94.50;;;;;;5009700;28;20045;-77
2022/06/14 01:07:00;;;;;;;2.95;1.98;;;10.80;95.10;;;;;;5008891;28;20382;-77
2022/06/14 01:09:25;;;;;;;4.95;1.80;;;10.70;95.20;;;;;;4997040;28;20045;-78
2022/06/14 01:12:00;;;;;;;3.25;2.05;;;10.70;95.50;;;;;;5007423;28;20030;-77
2022/06/14 01:14:58;;;;;;;3.25;2.03;;;10.70;96.20;;;;;;5005675;28;20022;-77
2022/06/14 01:17:25;;;;;;;4.85;2.15;;;10.60;96.80;;;;;;4990859;28;20038;-78
2022/06/14 01:19:51;;;;;;;4.43;2.50;;;10.60;96.90;;;;;;4994884;28;20129;-77
2022/06/14 01:22:16;;;;;;;4.97;2.40;;;10.60;97.00;;;;;;5019702;28;20038;-77
2022/06/14 01:24:43;;;;;;;2.10;1.90;;;10.50;96.90;;;;;;5008586;28;20154;-77
2022/06/14 01:27:13;;;;;;;2.80;2.47;;;10.50;97.50;;;;;;5023813;28;20089;-77
2022/06/14 01:29:41;;;;;;;3.75;2.30;;;10.50;97.90;;;;;;4999770;28;20061;-77
2022/06/14 01:32:12;;;;;;;2.72;2.20;;;10.50;98.20;;;;;;5038575;28;20030;-77
2022/06/14 01:34:41;;;;;;;2.88;2.10;;;10.40;98.40;;;;;;4993222;28;20029;-77
2022/06/14 01:37:07;;;;;;;3.15;2.10;;;10.50;98.20;;;;;;5002786;28;20022;-77
2022/06/14 01:39:33;;;;;;;4.43;2.50;;;10.40;97.90;;;;;;5006549;28;20053;-77
2022/06/14 01:42:18;;;;;;;4.00;2.33;;;10.40;97.70;;;;;;5015431;28;20041;-77
2022/06/14 01:45:04;;;;;;;2.43;2.20;;;10.40;97.70;;;;;;5003087;28;20388;-77
2022/06/14 01:47:44;;;;;;;;;;;10.40;97.90;;;;;;5024821;28;20044;-77
2022/06/14 01:53:38;;;;;;;2.45;2.10;;;10.40;98.00;;;;;;4986586;28;20033;-77
2022/06/14 01:56:28;;;;;;;2.85;2.35;;;10.40;98.10;;;;;;5017293;28;20091;-76
2022/06/14 01:59:16;;;;;;;3.42;2.40;;;10.40;98.60;;;;;;4991447;28;20256;-77
2022/06/14 02:02:03;;;;;;;3.70;2.20;;;10.30;98.50;;;;;;5022086;28;20041;-77
2022/06/14 02:04:53;;;;;;;3.20;2.20;;;10.30;98.60;;;;;;5008494;28;20022;-77
2022/06/14 02:07:34;;;;;;;4.05;2.30;;;10.30;98.70;;;;;;4992679;28;20420;-77
2022/06/14 02:10:16;;;;;;;2.78;2.00;;;10.20;99.10;;;;;;5003770;28;20029;-77
2022/06/14 02:12:53;;;;;;;4.40;2.42;;;10.10;99.50;;;;;;5027426;28;20129;-77
2022/06/14 02:15:44;;;;;;;3.67;2.30;;;10.10;99.90;;;;;;5001583;28;20037;-78
2022/06/14 02:18:31;;;;;;;4.07;2.40;;;10.10;99.90;;;;;;4991068;28;20133;-77
2022/06/14 02:21:18;;;;;;;4.20;2.30;;;10.00;99.80;;;;;;5013046;28;20096;-77
2022/06/14 02:24:07;;;;;;;2.97;2.10;;;9.90;99.90;;;;;;5018432;28;20038;-77
2022/06/14 02:26:37;;;;;;;3.25;2.22;;;9.90;99.90;;;;;;4994223;28;20039;-78
2022/06/14 02:29:20;;;;;;;4.13;2.40;;;9.90;99.90;;;;;;5009525;28;20509;-78
2022/06/14 02:32:00;;;;;;;3.95;2.08;;;9.90;99.90;;;;;;5025810;28;20392;-77
2022/06/14 02:35:04;;;;;;;2.80;2.13;;;9.80;99.90;;;;;;5019765;28;20037;-77
2022/06/14 02:37:41;;;;;;;5.30;2.22;;;9.80;99.90;;;;;;5033966;28;20037;-77
2022/06/14 02:40:19;;;;;;;5.57;1.98;;;9.70;99.90;;;;;;5017096;28;20030;-77
2022/06/14 02:42:53;;;;;;;2.28;2.00;;;9.70;99.90;;;;;;5018535;28;20038;-77
2022/06/14 02:45:39;;;;;;;2.95;1.90;;;9.70;99.90;;;;;;5011069;28;20030;-77
2022/06/14 02:48:26;;;;;;;2.67;2.10;;;9.70;99.90;;;;;;4998514;28;20464;-78
2022/06/14 02:51:01;;;;;;;3.28;2.13;;;9.60;99.90;;;;;;4995970;28;20045;-77
2022/06/14 02:53:43;;;;;;;3.92;2.50;;;9.60;99.90;;;;;;5005629;28;20038;-77
2022/06/14 02:56:22;;;;;;;3.20;2.50;;;9.60;99.90;;;;;;5008543;28;20025;-78
2022/06/14 02:58:55;;;;;;;4.15;2.88;;;9.50;99.90;;;;;;5016749;28;20033;-78
2022/06/14 03:01:33;;;;;;;5.13;2.47;;;9.50;99.90;;;;;;5022140;28;20045;-77
2022/06/14 03:04:26;;;;;;;4.20;2.47;;;9.50;99.90;;;;;;5009015;28;20042;-78
2022/06/14 03:07:07;;;;;;;5.10;2.53;;;9.50;99.90;;;;;;5039269;28;20041;-77
2022/06/14 03:09:36;;;;;;;3.72;2.70;;;9.50;99.90;;;;;;5007453;28;20048;-77
2022/06/14 03:12:30;;;;;;;4.80;2.45;;;9.40;99.90;;;;;;5008498;28;20473;-78
2022/06/14 03:14:56;;;;;;;2.90;2.42;;;9.40;99.90;;;;;;5002633;28;20031;-77
2022/06/14 03:17:47;;;;;;;3.85;2.42;;;9.30;99.90;;;;;;5013852;28;20037;-77
2022/06/14 03:20:45;;;;;;;3.75;2.40;;;9.30;99.90;;;;;;5017894;28;20044;-77
2022/06/14 03:23:29;;;;;;;4.55;2.30;;;9.30;99.90;;;;;;4996963;28;20088;-78
2022/06/14 03:26:21;;;;;;;3.70;2.63;;;9.30;99.90;;;;;;5004192;28;20038;-77
2022/06/14 03:28:59;;;;;;;3.33;2.35;;;9.30;99.90;;;;;;5013375;28;20030;-78
2022/06/14 03:31:40;;;;;;;2.55;2.35;;;9.30;99.90;;;;;;5024713;28;20112;-77
2022/06/14 03:34:18;;;;;;;3.00;2.47;;;9.30;99.90;;;;;;5013334;28;20081;-77
2022/06/14 03:36:44;;;;;;;4.22;2.17;;;9.30;99.90;;;;;;4997477;28;20034;-77
2022/06/14 03:39:39;;;;;;;5.68;2.78;;;9.30;99.90;;;;;;4999443;28;20041;-77
2022/06/14 03:42:08;;;;;;;3.40;2.80;;;9.30;99.90;;;;;;5010782;28;20432;-78
2022/06/14 03:44:34;;;;;;;3.40;2.50;;;9.30;99.90;;;;;;5004661;28;20042;-77
2022/06/14 03:47:27;;;;;;;4.68;2.80;;;9.30;99.90;;;;;;5005544;28;20110;-78
2022/06/14 03:49:59;;;;;;;3.10;2.25;;;9.30;99.90;;;;;;5006050;28;20042;-78
2022/06/14 03:52:24;;;;;;;3.35;2.58;;;9.30;99.90;;;;;;5019440;28;20034;-78
2022/06/14 03:54:59;;;;;;;5.53;2.60;;;9.40;99.90;;;;;;4999424;28;20022;-78
2022/06/14 03:57:51;;;;;;;4.50;2.70;;;9.40;99.90;;;;;;5035037;28;20131;-78
2022/06/14 04:00:43;;;;;;;2.75;2.10;;;9.40;99.90;;;;;;5014203;28;20033;-78
2022/06/14 04:03:40;;;;;;;2.58;2.13;;;9.40;99.90;;;;;;5004346;28;20038;-77
2022/06/14 04:06:45;;;;;;;4.75;2.53;;;9.40;99.90;;;;;;5021409;28;20038;-77
2022/06/14 04:09:40;;;;;;;2.80;2.13;;;9.40;99.90;;;;;;5003105;28;20034;-79
2022/06/14 04:12:46;;;;;;;2.83;2.22;;;9.50;99.90;;;;;;5045494;28;20026;-78
2022/06/14 04:15:35;;;;;;;3.50;2.17;;;9.50;99.90;;;;;;4976052;28;20078;-79
2022/06/14 04:18:56;;;;;;;3.47;2.45;;;9.60;99.90;;;;;;5018037;28;20067;-79
2022/06/14 04:21:34;;;;;;;3.95;2.55;;;9.70;99.90;;;;;;4999831;28;20038;-79
2022/06/14 04:24:30;;;;;;;5.30;2.55;;;9.70;99.90;;;;;;5042166;28;20050;-79
2022/06/14 04:26:57;;;;;;;;;;;9.70;99.90;;;;;;5032163;28;20029;-79
2022/06/14 04:29:38;;;;;;;3.42;2.25;;;9.80;99.90;;;;;;5016822;28;19921;-78
2022/06/14 04:32:12;;;;;;;2.70;2.28;;;9.80;99.90;;;;;;5032581;28;20042;-79
2022/06/14 04:34:46;;;;;;;4.35;2.85;;;9.90;99.90;;;;;;5012199;28;20044;-78
2022/06/14 04:37:24;;;;;;;3.58;2.17;;;9.90;99.90;;;;;;5017811;28;20524;-79
2022/06/14 04:39:58;;;;;;;4.28;2.55;;;10.00;99.90;;;;;;5001636;28;20041;-79
2022/06/14 04:42:33;;;;;;;2.95;2.53;;;10.10;99.90;;;;;;5005310;28;20087;-78
2022/06/14 04:45:09;;;;;;;5.82;2.85;;;10.20;99.90;;;;;;5022787;28;20040;-78
2022/06/14 04:47:50;;;;;;;2.47;2.17;;;10.20;99.90;;;;;;5012073;28;20073;-79
2022/06/14 04:50:21;;;;;;;3.58;2.25;;;10.40;99.90;;;;;;5002516;28;20536;-78
2022/06/14 04:53:09;;;;;;;3.00;2.28;;;10.40;99.90;;;;;;5028060;28;20030;-78
2022/06/14 04:55:50;;;;;;;2.85;2.25;;;10.50;99.90;;;;;;5016029;28;20037;-78
2022/06/14 04:58:36;;;;;;;3.78;2.50;;;10.60;99.90;;;;;;5018490;28;20030;-78
2022/06/14 05:01:14;;;;;;;4.68;2.72;;;10.70;99.90;;;;;;5020827;28;20045;-78
2022/06/14 05:03:50;;;;;;;3.10;2.42;;;10.80;99.90;;;;;;5015110;28;20043;-78
2022/06/14 05:06:41;;;;;;;3.58;2.47;;;10.80;99.90;;;;;;5018433;28;20049;-78
2022/06/14 05:09:21;;;;;;;2.90;2.30;;;10.90;99.90;;;;;;5008131;28;20035;-78
2022/06/14 05:11:50;;;;;;;4.60;2.83;;;11.00;99.90;;;;;;5019910;28;20057;-79
2022/06/14 05:14:18;;;;;;;2.95;2.33;;;11.10;99.90;;;;;;5018970;28;20045;-78
2022/06/14 05:17:08;;;;;;;2.65;2.45;;;11.10;99.90;;;;;;5017062;28;20038;-78
2022/06/14 05:19:36;;;;;;;5.07;2.80;;;11.20;99.90;;;;;;5007934;28;20477;-79
2022/06/14 05:22:14;;;;;;;3.38;2.75;;;11.40;99.90;;;;;;5018180;28;20030;-78
2022/06/14 05:24:40;;;;;;;4.78;2.60;;;11.40;99.90;;;;;;5008931;28;20045;-78
2022/06/14 05:27:47;;;;;;;4.25;2.88;;;11.60;99.90;;;;;;5014128;28;20513;-78
2022/06/14 05:30:55;;;;;;;3.95;2.50;;;11.80;99.90;;;;;;5010917;28;20388;-79
2022/06/14 05:33:42;;;;;;;4.13;2.30;;;12.20;99.90;;;;;;4983244;28;20034;-78
2022/06/14 05:36:18;;;;;;;4.50;2.95;;;12.70;99.90;;;;;;5008623;28;20029;-78
2022/06/14 05:38:47;;;;;;;5.28;2.60;;;13.20;99.90;;;;;;5017823;28;20102;-78
2022/06/14 05:41:23;;;;;;;3.25;2.95;;;13.60;99.90;;;;;;5026405;28;20033;-78
2022/06/14 05:43:50;;;;;;;5.90;3.35;;;14.20;99.90;;;;;;5019789;28;20040;-78
2022/06/14 05:46:57;;;;;;;6.13;3.42;;;14.50;99.90;;;;;;5018490;28;20049;-78
2022/06/14 05:49:30;;;;;;;5.97;3.63;;;14.90;99.90;;;;;;5010325;28;20052;-79
2022/06/14 05:52:01;;;;;;;4.50;2.88;;;15.30;97.80;;;;;;5025223;28;20037;-78
2022/06/14 05:54:55;;;;;;;5.18;3.22;;;15.50;97.70;;;;;;5017074;28;20041;-79
2022/06/14 05:57:35;;;;;;;5.38;3.00;;;15.60;96.10;;;;;;5023851;28;20039;-78
2022/06/14 06:00:21;;;;;;;4.45;2.88;;;16.10;96.90;;;;;;5008304;28;20547;-79
2022/06/14 06:02:59;;;;;;;3.00;2.70;;;16.60;96.10;;;;;;4996172;28;20046;-79
2022/06/14 06:05:31;;;;;;;4.45;3.00;;;17.10;95.40;;;;;;5017202;28;20397;-78
2022/06/14 06:08:00;;;;;;;5.28;2.90;;;17.70;92.90;;;;;;5014614;28;20084;-78
2022/06/14 06:10:32;;;;;;;7.35;3.03;;;18.10;92.00;;;;;;5006423;28;20050;-78
2022/06/14 06:13:33;;;;;;;2.95;2.28;;;18.60;90.70;;;;;;4995316;28;20034;-79
2022/06/14 06:16:25;;;;;;;3.65;3.08;;;19.00;89.10;;;;;;5002786;28;20045;-79
2022/06/14 06:19:00;;;;;;;3.20;2.40;;;19.30;89.60;;;;;;5006506;28;20567;-78
2022/06/14 06:22:00;;;;;;;3.80;2.63;;;19.60;85.00;;;;;;5038175;28;20092;-78
2022/06/14 06:24:46;;;;;;;3.45;2.50;;;19.80;84.40;;;;;;5007259;28;20096;-78
2022/06/14 06:27:12;;;;;;;3.03;2.15;;;20.20;81.40;;;;;;4993572;28;20034;-77
2022/06/14 06:30:01;;;;;;;4.50;2.80;;;20.40;79.40;;;;;;4992438;28;20031;-78
2022/06/14 06:32:31;;;;;;;5.03;2.35;;;20.30;74.20;;;;;;5026889;28;20429;-78
2022/06/14 06:35:01;;;;;;;3.03;2.10;;;20.20;73.90;;;;;;5008690;28;20504;-78
2022/06/14 06:37:37;;;;;;;3.83;2.70;;;20.10;77.20;;;;;;5020819;28;20101;-78
2022/06/14 06:40:22;;;;;;;3.65;2.47;;;20.10;73.50;;;;;;5007394;28;20140;-78
2022/06/14 06:42:58;;;;;;;3.55;3.22;;;20.10;74.90;;;;;;5008850;28;20069;-78
2022/06/14 06:45:35;;;;;;;4.18;2.53;;;20.20;74.30;;;;;;5012302;28;20132;-78
2022/06/14 06:48:15;;;;;;;5.93;3.95;;;20.60;75.00;;;;;;5004612;28;20034;-78
2022/06/14 06:50:49;;;;;;;4.40;2.30;;;21.00;70.70;;;;;;5000375;28;20029;-78
2022/06/14 06:53:18;;;;;;;2.30;1.80;;;21.30;70.10;;;;;;5005195;28;20046;-78
2022/06/14 06:56:09;;;;;;;3.15;1.40;;;21.60;66.00;;;;;;5012756;28;20465;-78
2022/06/14 06:58:53;;;;;;;4.60;1.80;;;21.50;62.20;;;;;;5003294;28;20452;-78
2022/06/14 07:01:21;;;;;;;1.65;1.55;;;21.50;64.00;;;;;;5013530;28;20659;-77
2022/06/14 07:03:55;;;;;;;2.78;1.95;;;22.00;65.10;;;;;;5012288;28;20067;-78
2022/06/14 07:06:39;;;;;;;3.78;1.50;;;21.90;61.50;;;;;;5020290;28;20084;-79
2022/06/14 07:09:28;;;;;;;2.42;1.30;;;22.00;61.30;;;;;;5031289;28;20033;-78
2022/06/14 07:12:04;;;;;;;2.30;1.40;;;22.30;62.70;;;;;;5026205;28;20093;-78
2022/06/14 07:14:33;;;;;;;2.13;1.15;;;22.80;63.60;;;;;;4974399;28;20030;-78
2022/06/14 07:17:09;;;;;;;3.63;1.80;;;23.30;61.20;;;;;;5000825;28;20049;-78
2022/06/14 07:20:02;;;;;;;1.75;1.20;;;23.50;56.90;;;;;;5011096;28;20030;-79
2022/06/14 07:22:42;;;;;;;1.73;1.20;;;23.40;57.80;;;;;;5011074;28;20042;-78
2022/06/14 07:25:30;;;;;;;3.42;1.20;;;23.60;58.00;;;;;;5009577;28;20109;-78
2022/06/14 07:28:05;;;;;;;1.60;1.20;;;24.10;58.20;;;;;;4995991;28;20549;-78
2022/06/14 07:30:45;;;;;;;1.70;1.23;;;24.50;57.40;;;;;;5004722;28;20124;-78
2022/06/14 07:33:12;;;;;;;1.92;1.20;;;25.00;55.90;;;;;;5033033;28;20025;-78
2022/06/14 07:35:45;;;;;;;4.78;1.85;;;25.00;53.90;;;;;;5012627;28;20519;-78
2022/06/14 07:38:46;;;;;;;4.55;1.67;;;24.80;52.70;;;;;;5033777;28;20037;-78
2022/06/14 07:41:33;;;;;;;4.05;1.30;;;23.90;54.10;;;;;;4991657;28;20045;-77
2022/06/14 07:44:17;;;;;;;1.58;1.33;;;24.00;54.60;;;;;;5024297;28;20076;-78
2022/06/14 07:46:47;;;;;;;4.32;1.23;;;23.60;54.30;;;;;;5013281;28;20041;-78
2022/06/14 07:49:30;;;;;;;1.75;0.98;;;23.60;54.50;;;;;;5013578;28;20084;-78
2022/06/14 07:52:12;;;;;;;1.13;1.00;;;23.90;54.50;;;;;;5027575;28;20030;-78
2022/06/14 07:54:46;;;;;;;4.45;0.95;;;24.30;52.80;;;;;;5033659;28;20025;-78
2022/06/14 07:57:22;;;;;;;1.38;0.90;;;24.50;55.00;;;;;;5016135;28;20460;-78
2022/06/14 07:59:54;;;;;;;0.88;0.80;;;24.80;51.60;;;;;;5011749;28;20057;-78
2022/06/14 08:02:20;;;;;;;3.35;1.23;;;24.50;50.60;;;;;;5013188;28;20030;-78
2022/06/14 08:05:08;;;;;;;2.80;1.13;;;24.20;50.30;;;;;;5012030;28;20484;-78
2022/06/14 08:07:34;;;;;;;1.25;1.00;;;23.90;51.70;;;;;;5031693;28;20049;-77
2022/06/14 08:10:25;;;;;;;2.92;1.17;;;23.60;52.00;;;;;;5004655;28;20033;-78
2022/06/14 08:13:01;;;;;;;3.15;1.20;;;23.40;53.30;;;;;;5005791;28;20022;-78
2022/06/14 08:15:47;;;;;;;1.35;1.00;;;23.40;51.60;;;;;;5013832;28;20030;-78
2022/06/14 08:18:20;;;;;;;1.33;0.80;;;23.20;50.70;;;;;;5019505;28;20049;-78
2022/06/14 08:20:46;;;;;;;2.13;1.10;;;23.10;53.70;;;;;;5002735;28;20495;-78
2022/06/14 08:23:56;;;;;;;2.97;1.00;;;22.90;54.00;;;;;;5006609;28;20033;-78
2022/06/14 08:26:38;;;;;;;2.05;1.20;;;22.80;53.80;;;;;;5001998;28;20046;-78
2022/06/14 08:29:13;;;;;;;1.70;1.10;;;22.80;54.10;;;;;;5007086;28;20038;-78
2022/06/14 08:31:45;;;;;;;3.35;0.98;;;22.80;53.70;;;;;;5041314;28;20045;-78
2022/06/14 08:34:17;;;;;;;3.17;1.27;;;22.60;52.60;;;;;;5025139;28;20048;-79
2022/06/14 08:36:52;;;;;;;3.33;1.00;;;22.50;54.80;;;;;;5025916;28;20203;-79
2022/06/14 08:39:36;;;;;;;3.40;1.13;;;22.50;55.20;;;;;;5008804;28;20041;-80
2022/06/14 08:42:13;;;;;;;2.22;1.25;;;22.50;56.00;;;;;;5012113;28;20042;-79
2022/06/14 08:45:03;;;;;;;2.28;1.00;;;22.40;54.10;;;;;;5004617;28;20111;-79
2022/06/14 08:47:49;;;;;;;1.35;1.08;;;22.30;55.10;;;;;;5011765;28;20069;-79
2022/06/14 08:50:47;;;;;;;4.85;0.85;;;22.10;54.10;;;;;;5009734;28;20061;-79
2022/06/14 08:53:24;;;;;;;2.13;1.08;;;21.90;56.40;;;;;;5011930;28;20052;-80
2022/06/14 08:56:20;;;;;;;1.52;1.10;;;21.80;57.40;;;;;;4999591;28;20026;-79
2022/06/14 08:59:04;;;;;;;;;;;21.80;56.20;;;;;;5013080;28;20102;-80
2022/06/14 09:02:22;;;;;;;3.08;0.82;;;21.80;56.00;;;;;;5004753;28;20019;-78
2022/06/14 09:05:19;;;;;;;0.90;0.70;;;21.90;55.70;;;;;;4955988;28;20037;-79
2022/06/14 09:08:21;;;;;;;1.05;0.90;;;21.80;58.40;;;;;;5024860;28;20504;-79
2022/06/14 09:11:17;;;;;;;1.48;0.93;;;21.90;58.30;;;;;;5006355;28;20026;-78
2022/06/14 09:14:02;;;;;;;1.17;0.85;;;21.90;57.70;;;;;;5031639;28;20025;-79
2022/06/14 09:17:12;;;;;;;2.88;1.02;;;22.00;55.30;;;;;;5013392;28;20076;-79
2022/06/14 09:20:00;;;;;;;2.90;1.00;;;22.00;55.50;;;;;;4958879;28;20026;-79
2022/06/14 09:22:50;;;;;;;2.58;0.90;;;21.90;55.50;;;;;;4967212;28;20043;-79
2022/06/14 09:25:35;;;;;;;3.13;0.98;;;21.70;55.30;;;;;;5004121;28;20037;-79
2022/06/14 09:28:11;;;;;;;1.05;0.60;;;21.50;56.00;;;;;;5000287;28;20041;-78
2022/06/14 09:30:37;;;;;;;1.02;0.80;;;21.40;55.80;;;;;;5001482;28;20032;-78
2022/06/14 09:33:30;;;;;;;1.75;0.82;;;21.60;55.80;;;;;;5032639;28;20029;-79
2022/06/14 09:36:21;;;;;;;1.65;0.68;;;21.70;58.20;;;;;;5004445;28;20034;-79
2022/06/14 09:39:17;;;;;;;3.17;1.00;;;21.90;55.50;;;;;;4992653;28;20022;-80
2022/06/14 09:42:09;;;;;;;1.17;0.90;;;21.90;54.70;;;;;;5016292;28;20034;-79
2022/06/14 09:44:34;;;;;;;1.83;0.88;;;21.90;55.20;;;;;;4996404;28;20392;-80
2022/06/14 09:47:22;;;;;;;2.30;1.15;;;21.90;55.90;;;;;;5010874;28;20036;-79
2022/06/14 09:50:34;;;;;;;2.50;1.42;;;21.70;56.10;;;;;;5012360;28;20049;-80
2022/06/14 09:53:35;;;;;;;2.00;0.80;;;21.60;57.50;;;;;;4975270;28;20030;-79
2022/06/14 09:56:12;;;;;;;1.50;0.82;;;21.50;55.80;;;;;;4990621;28;20029;-79
2022/06/14 09:58:50;;;;;;;2.95;1.23;;;21.60;56.80;;;;;;5011559;28;20034;-80
2022/06/14 10:01:28;;;;;;;1.67;0.85;;;21.50;56.70;;;;;;5005431;28;20030;-79
2022/06/14 10:04:10;;;;;;;1.23;0.77;;;21.60;56.40;;;;;;4993988;28;20030;-80
2022/06/14 10:06:58;;;;;;;1.10;1.00;;;21.60;57.10;;;;;;5014131;28;20079;-78
2022/06/14 10:09:38;;;;;;;0.90;0.70;;;21.60;54.50;;;;;;5002854;28;20456;-78
2022/06/14 10:12:13;;;;;;;4.00;1.25;;;21.60;56.40;;;;;;5023477;28;20036;-78
2022/06/14 10:15:05;;;;;;;4.82;1.30;;;21.70;57.40;;;;;;5031473;28;20021;-79
2022/06/14 10:17:58;;;;;;;2.35;0.90;;;21.90;57.00;;;;;;5010506;28;20489;-78
2022/06/14 10:20:51;;;;;;;1.77;0.98;;;22.00;55.50;;;;;;4995934;28;20061;-78
2022/06/14 10:23:34;;;;;;;0.90;0.80;;;22.00;55.90;;;;;;5022742;28;20034;-78
2022/06/14 10:28:59;;;;;;;2.10;1.00;;;21.80;54.80;;;;;;4992069;28;20118;-78
2022/06/14 10:31:40;;;;;;;2.08;1.15;;;21.60;54.30;;;;;;5011916;28;20026;-78
2022/06/14 10:34:23;;;;;;;2.17;1.15;;;21.30;55.30;;;;;;5008775;28;20122;-78
2022/06/14 10:37:01;;;;;;;0.70;0.70;;;21.20;58.50;;;;;;5021606;28;20496;-78
2022/06/14 10:39:56;;;;;;;2.47;0.80;;;21.10;56.50;;;;;;5002360;28;20489;-78
2022/06/14 10:42:41;;;;;;;0.73;0.70;;;21.00;56.30;;;;;;5029080;28;20045;-79
2022/06/14 10:45:15;;;;;;;2.17;0.77;;;21.10;57.80;;;;;;5014769;28;20026;-78
2022/06/14 10:48:07;;;;;;;0.60;0.60;;;21.20;58.00;;;;;;4999969;28;20474;-77
2022/06/14 10:50:52;;;;;;;0.88;0.77;;;21.40;57.80;;;;;;5007141;28;20148;-80
2022/06/14 10:53:37;;;;;;;1.23;0.70;;;21.70;56.10;;;;;;5002088;28;20481;-78
2022/06/14 10:56:24;;;;;;;0.70;0.70;;;21.80;55.40;;;;;;4989999;28;20045;-79
2022/06/14 10:58:52;;;;;;;2.55;0.90;;;21.80;54.90;;;;;;4974566;28;20030;-79
2022/06/14 11:01:47;;;;;;;3.17;0.80;;;21.70;55.00;;;;;;5021178;28;20515;-78
2022/06/14 11:04:47;;;;;;;2.58;0.90;;;21.70;53.90;;;;;;5015805;28;20030;-79
2022/06/14 11:07:19;;;;;;;2.13;0.70;;;21.70;55.70;;;;;;5021974;28;20038;-80
2022/06/14 11:10:29;;;;;;;1.00;0.70;;;21.70;54.60;;;;;;5018273;28;20109;-79
2022/06/14 11:13:06;;;;;;;1.55;0.85;;;21.70;53.70;;;;;;5011513;28;20023;-80
2022/06/14 11:15:45;;;;;;;1.63;0.80;;;21.70;55.40;;;;;;5030459;28;20025;-80
2022/06/14 11:18:22;;;;;;;4.95;2.17;;;21.60;54.00;;;;;;5007972;28;20448;-80
2022/06/14 11:20:54;;;;;;;2.30;0.90;;;21.70;55.20;;;;;;5022985;28;20025;-80
2022/06/14 11:23:27;;;;;;;2.35;0.80;;;21.70;54.30;;;;;;5022300;28;20045;-79
2022/06/14 11:26:28;;;;;;;1.13;0.80;;;21.80;55.90;;;;;;5059611;28;20033;-78
2022/06/14 11:29:09;;;;;;;2.85;0.80;;;21.90;53.00;;;;;;5006375;28;20034;-79
2022/06/14 11:31:47;;;;;;;0.88;0.75;;;21.80;53.60;;;;;;5051347;28;20041;-79
2022/06/14 11:34:37;;;;;;;3.00;0.85;;;21.90;56.30;;;;;;5002313;28;20026;-79
2022/06/14 11:37:31;;;;;;;2.03;0.73;;;21.80;53.20;;;;;;5023832;28;20289;-79
2022/06/14 11:40:03;;;;;;;0.68;0.68;;;21.80;53.10;;;;;;5015496;28;20038;-80
2022/06/14 11:42:34;;;;;;;1.08;0.77;;;21.80;55.30;;;;;;5021278;28;20042;-78
2022/06/14 11:45:18;;;;;;;1.48;0.95;;;22.00;56.10;;;;;;5005937;28;20481;-79
2022/06/14 11:48:22;;;;;;;1.92;0.90;;;22.00;52.70;;;;;;5007808;28;20089;-79
2022/06/14 11:51:08;;;;;;;1.67;0.80;;;22.00;53.20;;;;;;5011203;28;20033;-79
2022/06/14 11:53:46;;;;;;;;;;;22.10;53.90;;;;;;5013519;28;20106;-79
2022/06/14 11:56:30;;;;;;;0.80;0.80;;;22.20;53.80;;;;;;5010799;28;19909;-79
2022/06/14 11:59:32;;;;;;;0.93;0.68;;;22.50;53.90;;;;;;5023732;28;20037;-78
2022/06/14 12:02:09;;;;;;;1.08;0.93;;;22.70;52.90;;;;;;4989111;28;20504;-80
2022/06/14 12:04:50;;;;;;;2.28;0.65;;;22.90;50.50;;;;;;5006962;28;20037;-79
2022/06/14 12:07:24;;;;;;;0.70;0.70;;;23.00;51.70;;;;;;5015491;28;20039;-79
2022/06/14 12:10:09;;;;;;;2.05;0.88;;;23.10;50.80;;;;;;5017178;28;20082;-79
2022/06/14 12:13:06;;;;;;;2.33;1.00;;;23.30;51.00;;;;;;5046130;28;20027;-79
2022/06/14 12:16:00;;;;;;;4.28;0.90;;;23.50;51.90;;;;;;5041659;28;20025;-79
2022/06/14 12:18:30;;;;;;;1.05;0.95;;;23.80;50.50;;;;;;5010055;28;20034;-80
2022/06/14 12:21:44;;;;;;;1.13;0.60;;;24.20;50.90;;;;;;5025810;28;20037;-80
2022/06/14 12:24:19;;;;;;;3.83;0.80;;;24.60;50.60;;;;;;4995142;28;20042;-79
2022/06/14 12:26:59;;;;;;;5.03;0.80;;;25.00;46.80;;;;;;5028391;28;20175;-80
2022/06/14 12:29:28;;;;;;;1.05;0.60;;;25.10;46.00;;;;;;5019091;28;20030;-80
2022/06/14 12:32:10;;;;;;;1.30;0.80;;;25.00;47.50;;;;;;5012989;28;20041;-79
2022/06/14 12:34:54;;;;;;;1.30;0.88;;;25.00;48.20;;;;;;5019880;28;20031;-79
2022/06/14 12:37:43;;;;;;;1.65;0.65;;;25.00;47.70;;;;;;5002679;28;20136;-80
2022/06/14 12:40:50;;;;;;;3.70;2.17;;;25.30;47.50;;;;;;5002010;28;20046;-81
2022/06/14 12:43:46;;;;;;;1.30;0.73;;;25.90;46.10;;;;;;4993044;28;20105;-80
2022/06/14 12:46:18;;;;;;;0.88;0.70;;;26.10;45.30;;;;;;5013801;28;20026;-80
2022/06/14 12:48:47;;;;;;;0.50;0.50;;;26.30;46.10;;;;;;5012323;28;20054;-79
2022/06/14 12:51:15;;;;;;;1.90;0.70;;;26.60;45.60;;;;;;5017886;28;20399;-80
2022/06/14 12:54:18;;;;;;;0.85;0.68;;;26.90;45.10;;;;;;5005153;28;20041;-79
2022/06/14 12:57:02;;;;;;;1.20;0.85;;;27.10;43.30;;;;;;5010285;28;20034;-80
2022/06/14 12:59:50;;;;;;;1.15;0.77;;;26.80;42.50;;;;;;5006002;28;20113;-80
2022/06/14 13:02:49;;;;;;;1.77;0.68;;;26.60;43.00;;;;;;5024254;28;20073;-80
2022/06/14 13:05:21;;;;;;;1.27;0.50;;;26.40;45.80;;;;;;5040486;28;20481;-79
2022/06/14 13:08:10;;;;;;;4.03;0.95;;;26.40;44.20;;;;;;5011769;28;20026;-80
2022/06/14 13:10:45;;;;;;;0.95;0.55;;;26.50;44.00;;;;;;5007121;28;20040;-80
2022/06/14 13:13:52;;;;;;;1.58;0.73;;;26.70;44.00;;;;;;5011543;28;20524;-80
2022/06/14 13:16:47;;;;;;;3.38;0.90;;;26.80;41.10;;;;;;4983083;28;20534;-79
2022/06/14 13:19:23;;;;;;;0.88;0.70;;;26.50;43.40;;;;;;4991183;28;20636;-79
2022/06/14 13:22:04;;;;;;;1.70;0.80;;;26.30;44.40;;;;;;4989522;28;20030;-80
2022/06/14 13:24:36;;;;;;;1.27;0.55;;;26.10;43.30;;;;;;5005345;28;20022;-81
2022/06/14 13:27:26;;;;;;;6.57;0.82;;;25.90;43.10;;;;;;5015079;28;20169;-81
2022/06/14 13:30:09;;;;;;;2.45;0.60;;;26.20;44.30;;;;;;5012062;28;20030;-81
2022/06/14 13:32:45;;;;;;;1.95;0.80;;;26.60;41.70;;;;;;5027671;28;20026;-81
2022/06/14 13:35:29;;;;;;;1.58;0.93;;;26.90;42.20;;;;;;5016113;28;20520;-80
2022/06/14 13:38:30;;;;;;;0.95;0.70;;;27.30;42.50;;;;;;5008485;28;20044;-81
2022/06/14 13:41:17;;;;;;;3.08;0.88;;;27.40;39.70;;;;;;5007544;28;20030;-80
2022/06/14 13:43:46;;;;;;;0.50;0.43;;;27.20;39.90;;;;;;4996630;28;20034;-80
2022/06/14 13:46:30;;;;;;;1.30;0.60;;;27.00;41.70;;;;;;5017712;28;20030;-80
2022/06/14 13:49:26;;;;;;;0.88;0.60;;;26.70;40.80;;;;;;4997142;28;20119;-80
2022/06/14 13:51:56;;;;;;;0.63;0.60;;;26.70;41.40;;;;;;5008435;28;20034;-81
2022/06/14 13:54:41;;;;;;;1.05;0.60;;;26.80;40.70;;;;;;4997264;28;20389;-80
2022/06/14 13:57:29;;;;;;;2.80;0.70;;;26.80;40.40;;;;;;5008196;28;20090;-81
2022/06/14 14:00:21;;;;;;;1.77;0.70;;;26.70;39.00;;;;;;5002688;28;20030;-80
2022/06/14 14:02:54;;;;;;;1.00;0.80;;;26.30;39.10;;;;;;5005286;28;20037;-79
2022/06/14 14:05:32;;;;;;;2.65;0.68;;;25.70;40.50;;;;;;5005137;28;20037;-79
2022/06/14 14:08:34;;;;;;;2.17;1.80;;;25.20;41.70;;;;;;5007188;28;20069;-80
2022/06/14 14:11:33;;;;;;;1.25;1.00;;;24.70;43.90;;;;;;5000757;28;20685;-80